TVF14RB LGAV-LFLL
Flight info
| Callsign | TVF14RB |
|---|---|
| Flight time | 2h 45m |
| Altitude | 32000 |
| Route | KOR UL53 GARTA DCT OLGAT DCT TUFTE DCT KUGIX DCT OLKIS DCT TESTO DCT TOP DCT RONOP/N0406F280 DCT GIGUS/N0400F270 Z40 AMVAR |
| Aircraft | B738/M-SDFGHIJ1RWXY/LB1 |
Departure
| Time | 2026-05-05 18:15 |
|---|---|
| Airport | Athens Eleftherios Venizelos International Airport (LGAV) |
Arrival
| Time | 2026-05-05 21:00 |
|---|---|
| Airport | Lyon Saint-Exupéry Airport (LFLL) |
| Time | Latitude | Longitude | Altitude | Speed | Heading |
|---|---|---|---|---|---|
| 2026-05-05 17:52 | 37.93072 | 23.94227 | 277 ft | 0 kts | 37° |
| 2026-05-05 18:04 | 37.93068 | 23.94223 | 277 ft | 2 kts | 37° |
| 2026-05-05 18:04 | 37.93056 | 23.94211 | 277 ft | 2 kts | 37° |
| 2026-05-05 18:05 | 37.93044 | 23.94200 | 277 ft | 2 kts | 37° |
| 2026-05-05 18:05 | 37.93031 | 23.94188 | 276 ft | 2 kts | 37° |
| 2026-05-05 18:05 | 37.93019 | 23.94176 | 276 ft | 2 kts | 37° |
| 2026-05-05 18:05 | 37.93007 | 23.94165 | 276 ft | 1 kts | 49° |
| 2026-05-05 18:06 | 37.93004 | 23.94150 | 276 ft | 2 kts | 110° |
| 2026-05-05 18:06 | 37.93005 | 23.94146 | 276 ft | 0 kts | 122° |
| 2026-05-05 18:06 | 37.93010 | 23.94138 | 275 ft | 0 kts | 128° |
| 2026-05-05 18:09 | 37.93005 | 23.94147 | 275 ft | 2 kts | 127° |
| 2026-05-05 18:10 | 37.92985 | 23.94181 | 276 ft | 6 kts | 127° |
| 2026-05-05 18:10 | 37.92948 | 23.94243 | 277 ft | 11 kts | 127° |
| 2026-05-05 18:10 | 37.92894 | 23.94333 | 279 ft | 11 kts | 127° |
| 2026-05-05 18:10 | 37.92856 | 23.94396 | 279 ft | 5 kts | 127° |
| 2026-05-05 18:11 | 37.92850 | 23.94407 | 279 ft | 0 kts | 127° |
| 2026-05-05 18:11 | 37.92848 | 23.94411 | 279 ft | 3 kts | 127° |
| 2026-05-05 18:12 | 37.92812 | 23.94451 | 279 ft | 10 kts | 162° |
| 2026-05-05 18:12 | 37.92749 | 23.94423 | 278 ft | 10 kts | 216° |
| 2026-05-05 18:12 | 37.92677 | 23.94354 | 277 ft | 14 kts | 217° |
| 2026-05-05 18:12 | 37.92594 | 23.94285 | 276 ft | 13 kts | 191° |
| 2026-05-05 18:13 | 37.92523 | 23.94345 | 276 ft | 12 kts | 128° |
| 2026-05-05 18:13 | 37.92480 | 23.94415 | 276 ft | 8 kts | 124° |
| 2026-05-05 18:13 | 37.92488 | 23.94451 | 276 ft | 0 kts | 36° |
| 2026-05-05 18:14 | 37.92536 | 23.94497 | 276 ft | 33 kts | 38° |
| 2026-05-05 18:14 | 37.92925 | 23.94869 | 281 ft | 103 kts | 37° |
| 2026-05-05 18:14 | 37.93667 | 23.95574 | 276 ft | 162 kts | 37° |
| 2026-05-05 18:14 | 37.94643 | 23.96509 | 617 ft | 182 kts | 37° |
| 2026-05-05 18:15 | 37.95625 | 23.97466 | 1454 ft | 176 kts | 39° |
| 2026-05-05 18:15 | 37.96561 | 23.98432 | 2079 ft | 178 kts | 39° |
| 2026-05-05 18:15 | 37.97568 | 23.99393 | 2501 ft | 187 kts | 35° |
| 2026-05-05 18:15 | 37.98683 | 24.00407 | 2860 ft | 203 kts | 36° |
| 2026-05-05 18:16 | 37.99839 | 24.01494 | 3284 ft | 215 kts | 36° |
| 2026-05-05 18:16 | 38.01062 | 24.02667 | 3685 ft | 229 kts | 36° |
| 2026-05-05 18:16 | 38.02371 | 24.03927 | 4178 ft | 242 kts | 36° |
| 2026-05-05 18:16 | 38.03721 | 24.05228 | 4873 ft | 244 kts | 36° |
| 2026-05-05 18:17 | 38.05067 | 24.06523 | 5580 ft | 246 kts | 35° |
| 2026-05-05 18:17 | 38.06434 | 24.07759 | 6263 ft | 246 kts | 26° |
| 2026-05-05 18:17 | 38.08095 | 24.08367 | 6759 ft | 253 kts | 1° |
| 2026-05-05 18:17 | 38.09823 | 24.07921 | 7289 ft | 262 kts | 334° |
| 2026-05-05 18:18 | 38.11263 | 24.06498 | 7957 ft | 268 kts | 313° |
| 2026-05-05 18:18 | 38.12147 | 24.04403 | 8587 ft | 279 kts | 287° |
| 2026-05-05 18:18 | 38.12304 | 24.01946 | 9252 ft | 286 kts | 272° |
| 2026-05-05 18:18 | 38.12164 | 23.99395 | 9874 ft | 291 kts | 269° |
| 2026-05-05 18:19 | 38.11978 | 23.96832 | 10448 ft | 297 kts | 270° |
| 2026-05-05 18:19 | 38.11815 | 23.94144 | 10770 ft | 311 kts | 271° |
| 2026-05-05 18:19 | 38.11683 | 23.91371 | 11115 ft | 325 kts | 271° |
| 2026-05-05 18:19 | 38.11563 | 23.88456 | 11480 ft | 338 kts | 271° |
| 2026-05-05 18:20 | 38.11444 | 23.85459 | 12041 ft | 345 kts | 271° |
| 2026-05-05 18:20 | 38.11362 | 23.83435 | 12458 ft | 348 kts | 271° |
| 2026-05-05 18:20 | 38.11195 | 23.79335 | 13306 ft | 353 kts | 271° |
| 2026-05-05 18:20 | 38.11064 | 23.76193 | 13974 ft | 357 kts | 271° |
| 2026-05-05 18:21 | 38.10932 | 23.73080 | 14715 ft | 357 kts | 271° |
| 2026-05-05 18:21 | 38.10799 | 23.69927 | 15402 ft | 360 kts | 271° |
| 2026-05-05 18:21 | 38.10664 | 23.66754 | 16128 ft | 361 kts | 271° |
| 2026-05-05 18:21 | 38.10530 | 23.63611 | 16821 ft | 362 kts | 271° |
| 2026-05-05 18:22 | 38.10393 | 23.60405 | 17498 ft | 364 kts | 271° |
| 2026-05-05 18:22 | 38.10255 | 23.57230 | 18135 ft | 366 kts | 271° |
| 2026-05-05 18:22 | 38.10115 | 23.54003 | 18781 ft | 367 kts | 271° |
| 2026-05-05 18:22 | 38.09974 | 23.50759 | 19391 ft | 370 kts | 272° |
| 2026-05-05 18:23 | 38.09832 | 23.47540 | 19998 ft | 371 kts | 272° |
| 2026-05-05 18:23 | 38.09687 | 23.44243 | 20599 ft | 373 kts | 272° |
| 2026-05-05 18:23 | 38.09541 | 23.40980 | 21225 ft | 373 kts | 272° |
| 2026-05-05 18:23 | 38.09393 | 23.37695 | 21759 ft | 376 kts | 272° |
| 2026-05-05 18:24 | 38.09245 | 23.34405 | 22314 ft | 377 kts | 271° |
| 2026-05-05 18:24 | 38.09094 | 23.31089 | 22854 ft | 378 kts | 271° |
| 2026-05-05 18:24 | 38.08940 | 23.27743 | 23400 ft | 380 kts | 272° |
| 2026-05-05 18:24 | 38.08787 | 23.24408 | 23899 ft | 382 kts | 272° |
| 2026-05-05 18:25 | 38.08632 | 23.21059 | 24404 ft | 384 kts | 272° |
| 2026-05-05 18:25 | 38.08579 | 23.19897 | 24533 ft | 385 kts | 272° |
| 2026-05-05 18:25 | 38.08315 | 23.14251 | 25337 ft | 389 kts | 272° |
| 2026-05-05 18:25 | 38.08155 | 23.10827 | 25822 ft | 390 kts | 272° |
| 2026-05-05 18:26 | 38.07993 | 23.07430 | 26359 ft | 389 kts | 272° |
| 2026-05-05 18:26 | 38.07830 | 23.04019 | 26741 ft | 392 kts | 272° |
| 2026-05-05 18:26 | 38.07664 | 23.00541 | 27173 ft | 394 kts | 272° |
| 2026-05-05 18:26 | 38.07496 | 22.97070 | 27581 ft | 396 kts | 272° |
| 2026-05-05 18:27 | 38.07328 | 22.93619 | 27972 ft | 398 kts | 272° |
| 2026-05-05 18:27 | 38.07155 | 22.90090 | 28473 ft | 398 kts | 272° |
| 2026-05-05 18:27 | 38.06984 | 22.86616 | 28895 ft | 399 kts | 272° |
| 2026-05-05 18:27 | 38.06809 | 22.83091 | 29279 ft | 400 kts | 272° |
| 2026-05-05 18:28 | 38.06507 | 22.76128 | 30379 ft | 393 kts | 275° |
| 2026-05-05 18:28 | 38.06623 | 22.72689 | 30926 ft | 385 kts | 282° |
| 2026-05-05 18:28 | 38.07050 | 22.69380 | 31321 ft | 381 kts | 289° |
| 2026-05-05 18:29 | 38.07795 | 22.66186 | 31648 ft | 378 kts | 294° |
| 2026-05-05 18:29 | 38.08832 | 22.63188 | 31918 ft | 376 kts | 301° |
| 2026-05-05 18:29 | 38.10195 | 22.60322 | 32082 ft | 376 kts | 307° |
| 2026-05-05 18:29 | 38.11773 | 22.57725 | 32084 ft | 371 kts | 311° |
| 2026-05-05 18:30 | 38.15020 | 22.52730 | 32091 ft | 370 kts | 310° |
| 2026-05-05 18:30 | 38.18166 | 22.47530 | 32085 ft | 371 kts | 308° |
| 2026-05-05 18:31 | 38.21166 | 22.42233 | 32094 ft | 371 kts | 308° |
| 2026-05-05 18:31 | 38.24127 | 22.36853 | 32091 ft | 372 kts | 307° |
| 2026-05-05 18:32 | 38.27080 | 22.31426 | 32093 ft | 371 kts | 306° |
| 2026-05-05 18:32 | 38.30003 | 22.26031 | 32106 ft | 373 kts | 306° |
| 2026-05-05 18:33 | 38.32941 | 22.20599 | 32106 ft | 372 kts | 307° |
| 2026-05-05 18:33 | 38.35847 | 22.15211 | 32115 ft | 372 kts | 306° |
| 2026-05-05 18:34 | 38.38764 | 22.09798 | 32112 ft | 372 kts | 306° |
| 2026-05-05 18:34 | 38.41688 | 22.04369 | 32114 ft | 371 kts | 306° |
| 2026-05-05 18:35 | 38.44612 | 21.98923 | 32116 ft | 371 kts | 306° |
| 2026-05-05 18:35 | 38.47528 | 21.93479 | 32113 ft | 372 kts | 306° |
| 2026-05-05 18:36 | 38.50444 | 21.88031 | 32108 ft | 371 kts | 306° |
| 2026-05-05 18:36 | 38.53348 | 21.82595 | 32111 ft | 372 kts | 306° |
| 2026-05-05 18:37 | 38.56268 | 21.77124 | 32117 ft | 373 kts | 306° |
| 2026-05-05 18:37 | 38.59177 | 21.71658 | 32115 ft | 372 kts | 306° |
| 2026-05-05 18:38 | 38.62084 | 21.66181 | 32116 ft | 375 kts | 306° |
| 2026-05-05 18:38 | 38.64999 | 21.60683 | 32119 ft | 375 kts | 306° |
| 2026-05-05 18:39 | 38.67921 | 21.55161 | 32111 ft | 373 kts | 306° |
| 2026-05-05 18:39 | 38.70837 | 21.49648 | 32105 ft | 374 kts | 306° |
| 2026-05-05 18:40 | 38.73738 | 21.44155 | 32109 ft | 376 kts | 306° |
| 2026-05-05 18:40 | 38.76665 | 21.38606 | 32110 ft | 376 kts | 306° |
| 2026-05-05 18:41 | 38.79585 | 21.33051 | 32111 ft | 376 kts | 305° |
| 2026-05-05 18:41 | 38.82487 | 21.27525 | 32110 ft | 374 kts | 305° |
| 2026-05-05 18:42 | 38.85379 | 21.22012 | 32113 ft | 376 kts | 305° |
| 2026-05-05 18:42 | 38.88298 | 21.16440 | 32112 ft | 374 kts | 305° |
| 2026-05-05 18:43 | 38.91201 | 21.10891 | 32112 ft | 375 kts | 305° |
| 2026-05-05 18:43 | 38.94098 | 21.05344 | 32107 ft | 377 kts | 305° |
| 2026-05-05 18:44 | 38.97018 | 20.99744 | 32112 ft | 377 kts | 305° |
| 2026-05-05 18:44 | 39.00072 | 20.94277 | 32109 ft | 376 kts | 310° |
| 2026-05-05 18:45 | 39.03437 | 20.89166 | 32111 ft | 377 kts | 311° |
| 2026-05-05 18:45 | 39.06886 | 20.84040 | 32110 ft | 377 kts | 311° |
| 2026-05-05 18:46 | 39.10295 | 20.78926 | 32112 ft | 378 kts | 311° |
| 2026-05-05 18:46 | 39.13689 | 20.73777 | 32111 ft | 377 kts | 310° |
| 2026-05-05 18:47 | 39.17067 | 20.68621 | 32111 ft | 376 kts | 311° |
| 2026-05-05 18:47 | 39.20427 | 20.63480 | 32114 ft | 378 kts | 311° |
| 2026-05-05 18:48 | 39.23801 | 20.58313 | 32108 ft | 376 kts | 310° |
| 2026-05-05 18:48 | 39.27170 | 20.53143 | 32112 ft | 377 kts | 311° |
| 2026-05-05 18:49 | 39.30548 | 20.47957 | 32110 ft | 378 kts | 311° |
| 2026-05-05 18:49 | 39.33931 | 20.42750 | 32113 ft | 379 kts | 311° |
| 2026-05-05 18:50 | 39.37308 | 20.37542 | 32115 ft | 379 kts | 310° |
| 2026-05-05 18:50 | 39.40701 | 20.32303 | 32111 ft | 378 kts | 310° |
| 2026-05-05 18:51 | 39.44063 | 20.27100 | 32110 ft | 379 kts | 310° |
| 2026-05-05 18:51 | 39.47426 | 20.21885 | 32109 ft | 379 kts | 310° |
| 2026-05-05 18:52 | 39.50816 | 20.16623 | 32105 ft | 380 kts | 310° |
| 2026-05-05 18:52 | 39.54195 | 20.11368 | 32109 ft | 380 kts | 310° |
| 2026-05-05 18:53 | 39.57560 | 20.06125 | 32110 ft | 379 kts | 310° |
| 2026-05-05 18:53 | 39.60929 | 20.00868 | 32110 ft | 379 kts | 310° |
| 2026-05-05 18:54 | 39.64291 | 19.95618 | 32106 ft | 380 kts | 310° |
| 2026-05-05 18:54 | 39.67655 | 19.90352 | 32108 ft | 379 kts | 310° |
| 2026-05-05 18:55 | 39.71004 | 19.85100 | 32108 ft | 381 kts | 310° |
| 2026-05-05 18:55 | 39.74390 | 19.79783 | 32107 ft | 380 kts | 309° |
| 2026-05-05 18:56 | 39.77745 | 19.74502 | 32108 ft | 379 kts | 310° |
| 2026-05-05 18:56 | 39.81074 | 19.69251 | 32101 ft | 380 kts | 309° |
| 2026-05-05 18:57 | 39.84445 | 19.63934 | 32101 ft | 379 kts | 309° |
| 2026-05-05 18:57 | 39.87783 | 19.58657 | 32095 ft | 379 kts | 309° |
| 2026-05-05 18:58 | 39.91140 | 19.53340 | 32088 ft | 380 kts | 309° |
| 2026-05-05 18:58 | 39.94491 | 19.48022 | 32091 ft | 381 kts | 309° |
| 2026-05-05 18:59 | 39.97815 | 19.42740 | 32087 ft | 379 kts | 309° |
| 2026-05-05 18:59 | 40.01168 | 19.37402 | 32083 ft | 380 kts | 309° |
| 2026-05-05 19:00 | 40.04513 | 19.32067 | 32079 ft | 381 kts | 309° |
| 2026-05-05 19:00 | 40.07836 | 19.26756 | 32075 ft | 380 kts | 309° |
| 2026-05-05 19:01 | 40.11187 | 19.21395 | 32077 ft | 381 kts | 309° |
| 2026-05-05 19:01 | 40.14534 | 19.16026 | 32074 ft | 381 kts | 309° |
| 2026-05-05 19:02 | 40.17872 | 19.10667 | 32072 ft | 380 kts | 309° |
| 2026-05-05 19:02 | 40.21201 | 19.05312 | 32070 ft | 381 kts | 308° |
| 2026-05-05 19:03 | 40.24538 | 18.99904 | 32070 ft | 382 kts | 307° |
| 2026-05-05 19:03 | 40.27483 | 18.94174 | 32066 ft | 380 kts | 302° |
| 2026-05-05 19:04 | 40.30240 | 18.88261 | 32068 ft | 382 kts | 302° |
| 2026-05-05 19:04 | 40.32997 | 18.82391 | 32066 ft | 381 kts | 302° |
| 2026-05-05 19:05 | 40.35811 | 18.76467 | 32066 ft | 383 kts | 302° |
| 2026-05-05 19:05 | 40.38622 | 18.70570 | 32061 ft | 383 kts | 302° |
| 2026-05-05 19:06 | 40.41438 | 18.64662 | 32063 ft | 381 kts | 302° |
| 2026-05-05 19:06 | 40.44248 | 18.58762 | 32059 ft | 382 kts | 302° |
| 2026-05-05 19:07 | 40.46575 | 18.53869 | 32064 ft | 381 kts | 302° |
| 2026-05-05 19:07 | 40.49843 | 18.46981 | 32058 ft | 382 kts | 302° |
| 2026-05-05 19:08 | 40.52660 | 18.41043 | 32060 ft | 383 kts | 302° |
| 2026-05-05 19:08 | 40.55450 | 18.35141 | 32057 ft | 382 kts | 302° |
| 2026-05-05 19:09 | 40.58263 | 18.29172 | 32054 ft | 382 kts | 301° |
| 2026-05-05 19:09 | 40.61062 | 18.23227 | 32054 ft | 383 kts | 301° |
| 2026-05-05 19:10 | 40.63869 | 18.17253 | 32052 ft | 382 kts | 301° |
| 2026-05-05 19:10 | 40.66650 | 18.11328 | 32056 ft | 382 kts | 301° |
| 2026-05-05 19:11 | 40.69436 | 18.05368 | 32056 ft | 383 kts | 301° |
| 2026-05-05 19:11 | 40.72224 | 17.99402 | 32055 ft | 383 kts | 301° |
| 2026-05-05 19:12 | 40.75001 | 17.93446 | 32052 ft | 382 kts | 301° |
| 2026-05-05 19:12 | 40.77772 | 17.87495 | 32052 ft | 383 kts | 301° |
| 2026-05-05 19:13 | 40.80529 | 17.81560 | 32050 ft | 382 kts | 301° |
| 2026-05-05 19:13 | 40.83306 | 17.75562 | 32050 ft | 383 kts | 301° |
| 2026-05-05 19:14 | 40.86071 | 17.69585 | 32046 ft | 383 kts | 301° |
| 2026-05-05 19:14 | 40.88845 | 17.63575 | 32048 ft | 384 kts | 301° |
| 2026-05-05 19:15 | 40.91611 | 17.57578 | 32042 ft | 383 kts | 301° |
| 2026-05-05 19:15 | 40.94371 | 17.51578 | 32043 ft | 382 kts | 301° |
| 2026-05-05 19:16 | 40.97119 | 17.45590 | 32036 ft | 381 kts | 301° |
| 2026-05-05 19:16 | 40.99866 | 17.39594 | 32038 ft | 382 kts | 301° |
| 2026-05-05 19:17 | 41.02602 | 17.33609 | 32035 ft | 382 kts | 300° |
| 2026-05-05 19:17 | 41.05359 | 17.27572 | 32033 ft | 382 kts | 300° |
| 2026-05-05 19:18 | 41.08112 | 17.21531 | 32034 ft | 382 kts | 300° |
| 2026-05-05 19:18 | 41.10841 | 17.15527 | 32034 ft | 383 kts | 300° |
| 2026-05-05 19:19 | 41.13582 | 17.09484 | 32034 ft | 382 kts | 300° |
| 2026-05-05 19:19 | 41.16328 | 17.03421 | 32032 ft | 383 kts | 300° |
| 2026-05-05 19:20 | 41.19058 | 16.97378 | 32033 ft | 383 kts | 300° |
| 2026-05-05 19:20 | 41.21785 | 16.91326 | 32032 ft | 383 kts | 300° |
| 2026-05-05 19:21 | 41.24502 | 16.85286 | 32031 ft | 384 kts | 300° |
| 2026-05-05 19:21 | 41.27238 | 16.79194 | 32031 ft | 384 kts | 300° |
| 2026-05-05 19:22 | 41.29950 | 16.73143 | 32028 ft | 383 kts | 300° |
| 2026-05-05 19:22 | 41.32671 | 16.67060 | 32027 ft | 384 kts | 300° |
| 2026-05-05 19:23 | 41.35386 | 16.60982 | 32026 ft | 384 kts | 300° |
| 2026-05-05 19:23 | 41.38105 | 16.54879 | 32026 ft | 384 kts | 300° |
| 2026-05-05 19:24 | 41.40820 | 16.48775 | 32022 ft | 384 kts | 300° |
| 2026-05-05 19:24 | 41.43534 | 16.42658 | 32019 ft | 384 kts | 300° |
| 2026-05-05 19:25 | 41.46244 | 16.36539 | 32012 ft | 385 kts | 300° |
| 2026-05-05 19:25 | 41.48949 | 16.30416 | 32017 ft | 384 kts | 299° |
| 2026-05-05 19:26 | 41.51646 | 16.24304 | 32013 ft | 383 kts | 299° |
| 2026-05-05 19:26 | 41.54335 | 16.18197 | 32012 ft | 384 kts | 299° |
| 2026-05-05 19:27 | 41.57027 | 16.12071 | 32012 ft | 384 kts | 299° |
| 2026-05-05 19:27 | 41.59726 | 16.05918 | 32017 ft | 383 kts | 299° |
| 2026-05-05 19:28 | 41.62401 | 15.99804 | 32023 ft | 383 kts | 299° |
| 2026-05-05 19:28 | 41.65093 | 15.93636 | 32022 ft | 385 kts | 299° |
| 2026-05-05 19:29 | 41.67776 | 15.87480 | 32026 ft | 383 kts | 298° |
| 2026-05-05 19:29 | 41.70439 | 15.81356 | 32033 ft | 384 kts | 299° |
| 2026-05-05 19:30 | 41.73114 | 15.75192 | 32030 ft | 383 kts | 298° |
| 2026-05-05 19:30 | 41.75781 | 15.69033 | 32032 ft | 383 kts | 298° |
| 2026-05-05 19:31 | 41.78440 | 15.62882 | 32024 ft | 384 kts | 298° |
| 2026-05-05 19:31 | 41.81099 | 15.56716 | 32011 ft | 384 kts | 298° |
| 2026-05-05 19:32 | 41.83771 | 15.50508 | 32005 ft | 383 kts | 298° |
| 2026-05-05 19:32 | 41.86422 | 15.44335 | 32003 ft | 384 kts | 298° |
| 2026-05-05 19:33 | 41.89078 | 15.38138 | 31994 ft | 384 kts | 298° |
| 2026-05-05 19:33 | 41.91729 | 15.31940 | 31996 ft | 383 kts | 297° |
| 2026-05-05 19:34 | 41.94368 | 15.25758 | 31990 ft | 381 kts | 297° |
| 2026-05-05 19:35 | 41.98307 | 15.16504 | 31990 ft | 383 kts | 297° |
| 2026-05-05 19:35 | 42.00940 | 15.10303 | 31990 ft | 381 kts | 297° |
| 2026-05-05 19:36 | 42.03549 | 15.04145 | 31989 ft | 380 kts | 297° |
| 2026-05-05 19:36 | 42.06153 | 14.97983 | 31989 ft | 382 kts | 297° |
| 2026-05-05 19:37 | 42.08783 | 14.91751 | 31993 ft | 384 kts | 297° |
| 2026-05-05 19:37 | 42.11399 | 14.85539 | 31994 ft | 383 kts | 297° |
| 2026-05-05 19:38 | 42.14028 | 14.79282 | 31996 ft | 384 kts | 297° |
| 2026-05-05 19:38 | 42.16627 | 14.73086 | 32005 ft | 383 kts | 297° |
| 2026-05-05 19:39 | 42.19245 | 14.66827 | 32003 ft | 383 kts | 297° |
| 2026-05-05 19:39 | 42.21842 | 14.60608 | 32008 ft | 384 kts | 297° |
| 2026-05-05 19:40 | 42.24448 | 14.54350 | 32007 ft | 383 kts | 297° |
| 2026-05-05 19:40 | 42.27035 | 14.48128 | 32015 ft | 384 kts | 297° |
| 2026-05-05 19:41 | 42.29637 | 14.41862 | 32018 ft | 382 kts | 296° |
| 2026-05-05 19:41 | 42.32232 | 14.35597 | 32022 ft | 383 kts | 296° |
| 2026-05-05 19:42 | 42.34803 | 14.29370 | 32027 ft | 384 kts | 296° |
| 2026-05-05 19:42 | 42.37397 | 14.23079 | 32018 ft | 381 kts | 296° |
| 2026-05-05 19:43 | 42.39981 | 14.16800 | 32021 ft | 383 kts | 296° |
| 2026-05-05 19:43 | 42.42556 | 14.10519 | 32020 ft | 381 kts | 296° |
| 2026-05-05 19:44 | 42.45117 | 14.04261 | 32021 ft | 384 kts | 296° |
| 2026-05-05 19:44 | 42.47700 | 13.97948 | 32025 ft | 382 kts | 295° |
| 2026-05-05 19:45 | 42.50253 | 13.91694 | 32033 ft | 382 kts | 295° |
| 2026-05-05 19:45 | 42.52816 | 13.85397 | 32037 ft | 383 kts | 295° |
| 2026-05-05 19:46 | 42.55378 | 13.79084 | 32039 ft | 383 kts | 295° |
| 2026-05-05 19:46 | 42.57933 | 13.72773 | 32046 ft | 383 kts | 295° |
| 2026-05-05 19:47 | 42.60487 | 13.66460 | 32050 ft | 382 kts | 295° |
| 2026-05-05 19:47 | 42.63040 | 13.60135 | 32051 ft | 382 kts | 295° |
| 2026-05-05 19:48 | 42.65575 | 13.53835 | 32051 ft | 382 kts | 295° |
| 2026-05-05 19:48 | 42.68127 | 13.47476 | 32059 ft | 384 kts | 295° |
| 2026-05-05 19:49 | 42.70750 | 13.41151 | 32054 ft | 384 kts | 296° |
| 2026-05-05 19:49 | 42.73440 | 13.34895 | 32053 ft | 387 kts | 296° |
| 2026-05-05 19:50 | 42.76170 | 13.28534 | 32058 ft | 386 kts | 296° |
| 2026-05-05 19:50 | 42.78843 | 13.22266 | 32055 ft | 385 kts | 295° |
| 2026-05-05 19:51 | 42.81516 | 13.15964 | 32052 ft | 386 kts | 295° |
| 2026-05-05 19:51 | 42.84206 | 13.09603 | 32050 ft | 386 kts | 295° |
| 2026-05-05 19:52 | 42.86868 | 13.03287 | 32037 ft | 385 kts | 295° |
| 2026-05-05 19:52 | 42.89533 | 12.96950 | 32034 ft | 387 kts | 295° |
| 2026-05-05 19:53 | 42.92185 | 12.90633 | 32037 ft | 385 kts | 295° |
| 2026-05-05 19:53 | 42.94832 | 12.84307 | 32035 ft | 386 kts | 295° |
| 2026-05-05 19:54 | 42.97474 | 12.77986 | 32027 ft | 387 kts | 295° |
| 2026-05-05 19:54 | 43.00138 | 12.71608 | 32026 ft | 386 kts | 294° |
| 2026-05-05 19:55 | 43.02791 | 12.65227 | 32025 ft | 387 kts | 295° |
| 2026-05-05 19:55 | 43.05430 | 12.58872 | 32030 ft | 386 kts | 295° |
| 2026-05-05 19:56 | 43.08076 | 12.52483 | 32028 ft | 389 kts | 294° |
| 2026-05-05 19:56 | 43.10706 | 12.46124 | 32028 ft | 386 kts | 294° |
| 2026-05-05 19:57 | 43.13365 | 12.39677 | 32030 ft | 389 kts | 295° |
| 2026-05-05 19:57 | 43.16004 | 12.33266 | 32024 ft | 387 kts | 294° |
| 2026-05-05 19:58 | 43.18648 | 12.26826 | 32015 ft | 387 kts | 293° |
| 2026-05-05 19:58 | 43.21278 | 12.20404 | 32009 ft | 387 kts | 293° |
| 2026-05-05 19:59 | 43.23899 | 12.13998 | 32005 ft | 386 kts | 294° |
| 2026-05-05 19:59 | 43.26510 | 12.07594 | 32005 ft | 388 kts | 294° |
| 2026-05-05 20:00 | 43.29140 | 12.01132 | 32003 ft | 387 kts | 293° |
| 2026-05-05 20:00 | 43.31752 | 11.94701 | 31997 ft | 388 kts | 293° |
| 2026-05-05 20:01 | 43.34368 | 11.88247 | 31999 ft | 387 kts | 294° |
| 2026-05-05 20:01 | 43.36984 | 11.81781 | 31999 ft | 387 kts | 293° |
| 2026-05-05 20:02 | 43.39576 | 11.75353 | 31998 ft | 388 kts | 293° |
| 2026-05-05 20:02 | 43.42184 | 11.68881 | 31993 ft | 385 kts | 293° |
| 2026-05-05 20:03 | 43.44761 | 11.62464 | 31995 ft | 386 kts | 293° |
| 2026-05-05 20:03 | 43.47342 | 11.56021 | 31993 ft | 386 kts | 293° |
| 2026-05-05 20:04 | 43.49934 | 11.49532 | 31992 ft | 386 kts | 293° |
| 2026-05-05 20:04 | 43.52520 | 11.43050 | 31994 ft | 388 kts | 293° |
| 2026-05-05 20:05 | 43.55087 | 11.36603 | 31995 ft | 387 kts | 292° |
| 2026-05-05 20:05 | 43.57630 | 11.30068 | 31995 ft | 387 kts | 291° |
| 2026-05-05 20:06 | 43.60120 | 11.23517 | 31997 ft | 384 kts | 291° |
| 2026-05-05 20:06 | 43.62585 | 11.17015 | 31994 ft | 385 kts | 291° |
| 2026-05-05 20:07 | 43.65073 | 11.10451 | 31992 ft | 387 kts | 291° |
| 2026-05-05 20:07 | 43.67560 | 11.03896 | 31991 ft | 385 kts | 291° |
| 2026-05-05 20:08 | 43.70027 | 10.97374 | 31992 ft | 385 kts | 291° |
| 2026-05-05 20:08 | 43.72501 | 10.90827 | 31991 ft | 387 kts | 291° |
| 2026-05-05 20:09 | 43.74974 | 10.84263 | 31987 ft | 384 kts | 291° |
| 2026-05-05 20:09 | 43.77437 | 10.77710 | 31988 ft | 385 kts | 291° |
| 2026-05-05 20:10 | 43.79885 | 10.71183 | 31985 ft | 385 kts | 290° |
| 2026-05-05 20:10 | 43.82336 | 10.64628 | 31988 ft | 385 kts | 290° |
| 2026-05-05 20:11 | 43.84793 | 10.58043 | 31990 ft | 384 kts | 290° |
| 2026-05-05 20:11 | 43.87236 | 10.51478 | 31990 ft | 385 kts | 290° |
| 2026-05-05 20:12 | 43.89677 | 10.44912 | 31987 ft | 386 kts | 290° |
| 2026-05-05 20:12 | 43.92115 | 10.38335 | 31990 ft | 386 kts | 290° |
| 2026-05-05 20:13 | 43.94658 | 10.31730 | 31985 ft | 387 kts | 291° |
| 2026-05-05 20:13 | 43.97302 | 10.25246 | 31981 ft | 388 kts | 291° |
| 2026-05-05 20:14 | 43.99940 | 10.18776 | 31972 ft | 385 kts | 292° |
| 2026-05-05 20:14 | 44.02581 | 10.12330 | 31974 ft | 387 kts | 291° |
| 2026-05-05 20:15 | 44.05245 | 10.05837 | 31973 ft | 386 kts | 292° |
| 2026-05-05 20:15 | 44.07886 | 9.99401 | 31968 ft | 388 kts | 291° |
| 2026-05-05 20:16 | 44.10554 | 9.92885 | 31966 ft | 389 kts | 291° |
| 2026-05-05 20:16 | 44.13224 | 9.86353 | 31966 ft | 387 kts | 291° |
| 2026-05-05 20:17 | 44.15882 | 9.79834 | 31965 ft | 390 kts | 291° |
| 2026-05-05 20:17 | 44.18555 | 9.73263 | 31964 ft | 391 kts | 291° |
| 2026-05-05 20:18 | 44.21224 | 9.66688 | 31966 ft | 390 kts | 291° |
| 2026-05-05 20:18 | 44.23883 | 9.60128 | 31965 ft | 389 kts | 291° |
| 2026-05-05 20:19 | 44.26539 | 9.53557 | 31963 ft | 389 kts | 291° |
| 2026-05-05 20:19 | 44.29171 | 9.47027 | 31963 ft | 389 kts | 291° |
| 2026-05-05 20:20 | 44.31828 | 9.40418 | 31965 ft | 389 kts | 291° |
| 2026-05-05 20:20 | 44.34467 | 9.33839 | 31965 ft | 390 kts | 290° |
| 2026-05-05 20:21 | 44.37110 | 9.27236 | 31963 ft | 391 kts | 290° |
| 2026-05-05 20:21 | 44.39749 | 9.20631 | 31965 ft | 390 kts | 290° |
| 2026-05-05 20:22 | 44.42379 | 9.14032 | 31964 ft | 389 kts | 290° |
| 2026-05-05 20:22 | 44.45014 | 9.07400 | 31969 ft | 391 kts | 290° |
| 2026-05-05 20:23 | 44.47649 | 9.00747 | 31970 ft | 393 kts | 290° |
| 2026-05-05 20:23 | 44.50291 | 8.94073 | 31972 ft | 391 kts | 290° |
| 2026-05-05 20:24 | 44.52921 | 8.87414 | 31970 ft | 392 kts | 290° |
| 2026-05-05 20:24 | 44.55527 | 8.80797 | 31963 ft | 392 kts | 290° |
| 2026-05-05 20:25 | 44.58158 | 8.74100 | 31965 ft | 390 kts | 290° |
| 2026-05-05 20:25 | 44.60759 | 8.67463 | 31958 ft | 393 kts | 290° |
| 2026-05-05 20:26 | 44.63394 | 8.60722 | 31953 ft | 392 kts | 290° |
| 2026-05-05 20:26 | 44.65997 | 8.54058 | 31957 ft | 391 kts | 290° |
| 2026-05-05 20:27 | 44.68605 | 8.47351 | 31956 ft | 393 kts | 290° |
| 2026-05-05 20:27 | 44.71215 | 8.40623 | 31957 ft | 391 kts | 290° |
| 2026-05-05 20:28 | 44.73802 | 8.33956 | 31957 ft | 389 kts | 289° |
| 2026-05-05 20:28 | 44.76399 | 8.27221 | 31956 ft | 391 kts | 289° |
| 2026-05-05 20:29 | 44.78977 | 8.20535 | 31955 ft | 390 kts | 289° |
| 2026-05-05 20:29 | 44.81562 | 8.13806 | 31969 ft | 391 kts | 288° |
| 2026-05-05 20:30 | 44.84146 | 8.07069 | 31976 ft | 393 kts | 288° |
| 2026-05-05 20:30 | 44.86715 | 8.00360 | 31982 ft | 391 kts | 288° |
| 2026-05-05 20:31 | 44.89281 | 7.93636 | 31980 ft | 390 kts | 289° |
| 2026-05-05 20:31 | 44.91842 | 7.86907 | 31978 ft | 391 kts | 289° |
| 2026-05-05 20:32 | 44.94409 | 7.80150 | 31985 ft | 392 kts | 288° |
| 2026-05-05 20:32 | 44.96962 | 7.73405 | 31988 ft | 391 kts | 288° |
| 2026-05-05 20:33 | 44.99516 | 7.66654 | 31989 ft | 392 kts | 288° |
| 2026-05-05 20:33 | 45.02067 | 7.59881 | 31989 ft | 391 kts | 288° |
| 2026-05-05 20:34 | 45.04618 | 7.53101 | 31992 ft | 393 kts | 288° |
| 2026-05-05 20:34 | 45.07184 | 7.46254 | 31997 ft | 393 kts | 288° |
| 2026-05-05 20:35 | 45.09736 | 7.39440 | 32005 ft | 396 kts | 288° |
| 2026-05-05 20:35 | 45.12311 | 7.32554 | 32006 ft | 392 kts | 288° |
| 2026-05-05 20:36 | 45.14853 | 7.25718 | 32002 ft | 395 kts | 288° |
| 2026-05-05 20:36 | 45.17414 | 7.18830 | 31971 ft | 388 kts | 288° |
| 2026-05-05 20:36 | 45.18646 | 7.15539 | 31952 ft | 373 kts | 287° |
| 2026-05-05 20:37 | 45.19740 | 7.12280 | 31742 ft | 360 kts | 283° |
| 2026-05-05 20:37 | 45.20388 | 7.10106 | 31518 ft | 355 kts | 282° |
| 2026-05-05 20:37 | 45.21575 | 7.05834 | 30930 ft | 351 kts | 281° |
| 2026-05-05 20:37 | 45.22459 | 7.02588 | 30475 ft | 349 kts | 281° |
| 2026-05-05 20:38 | 45.23334 | 6.99412 | 30007 ft | 347 kts | 282° |
| 2026-05-05 20:38 | 45.24220 | 6.96249 | 29556 ft | 345 kts | 282° |
| 2026-05-05 20:38 | 45.25099 | 6.93148 | 29100 ft | 343 kts | 282° |
| 2026-05-05 20:38 | 45.25997 | 6.89987 | 28628 ft | 341 kts | 283° |
| 2026-05-05 20:39 | 45.26884 | 6.86868 | 28193 ft | 347 kts | 283° |
| 2026-05-05 20:39 | 45.27788 | 6.83648 | 27721 ft | 363 kts | 284° |
| 2026-05-05 20:39 | 45.28738 | 6.80281 | 27216 ft | 366 kts | 284° |
| 2026-05-05 20:39 | 45.29687 | 6.76963 | 26732 ft | 364 kts | 285° |
| 2026-05-05 20:40 | 45.30634 | 6.73663 | 26258 ft | 361 kts | 285° |
| 2026-05-05 20:40 | 45.31569 | 6.70406 | 25779 ft | 359 kts | 285° |
| 2026-05-05 20:40 | 45.32510 | 6.67118 | 25321 ft | 356 kts | 286° |
| 2026-05-05 20:40 | 45.33431 | 6.63887 | 24851 ft | 353 kts | 286° |
| 2026-05-05 20:41 | 45.34347 | 6.60665 | 24389 ft | 351 kts | 286° |
| 2026-05-05 20:41 | 45.35244 | 6.57502 | 23936 ft | 349 kts | 287° |
| 2026-05-05 20:41 | 45.36146 | 6.54310 | 23469 ft | 346 kts | 287° |
| 2026-05-05 20:41 | 45.37035 | 6.51154 | 23032 ft | 342 kts | 287° |
| 2026-05-05 20:42 | 45.37897 | 6.48035 | 22611 ft | 339 kts | 286° |
| 2026-05-05 20:42 | 45.38855 | 6.44976 | 22349 ft | 345 kts | 293° |
| 2026-05-05 20:42 | 45.40068 | 6.42007 | 22095 ft | 353 kts | 297° |
| 2026-05-05 20:42 | 45.41393 | 6.39070 | 21832 ft | 352 kts | 298° |
| 2026-05-05 20:43 | 45.42726 | 6.36172 | 21560 ft | 349 kts | 298° |
| 2026-05-05 20:43 | 45.44020 | 6.33325 | 21299 ft | 346 kts | 297° |
| 2026-05-05 20:43 | 45.45318 | 6.30419 | 20989 ft | 347 kts | 297° |
| 2026-05-05 20:43 | 45.46590 | 6.27525 | 20578 ft | 345 kts | 297° |
| 2026-05-05 20:44 | 45.47843 | 6.24646 | 20124 ft | 342 kts | 297° |
| 2026-05-05 20:44 | 45.49091 | 6.21755 | 19685 ft | 340 kts | 297° |
| 2026-05-05 20:44 | 45.50315 | 6.18909 | 19252 ft | 337 kts | 297° |
| 2026-05-05 20:44 | 45.51518 | 6.16102 | 18812 ft | 335 kts | 297° |
| 2026-05-05 20:45 | 45.53923 | 6.10464 | 17971 ft | 331 kts | 297° |
| 2026-05-05 20:45 | 45.55119 | 6.07654 | 17539 ft | 331 kts | 297° |
| 2026-05-05 20:45 | 45.56294 | 6.04892 | 17097 ft | 331 kts | 296° |
| 2026-05-05 20:46 | 45.57487 | 6.02087 | 16633 ft | 330 kts | 297° |
| 2026-05-05 20:46 | 45.58661 | 5.99331 | 16241 ft | 328 kts | 296° |
| 2026-05-05 20:46 | 45.59850 | 5.96535 | 15816 ft | 328 kts | 296° |
| 2026-05-05 20:46 | 45.61025 | 5.93770 | 15371 ft | 327 kts | 296° |
| 2026-05-05 20:47 | 45.62199 | 5.91002 | 14946 ft | 326 kts | 296° |
| 2026-05-05 20:47 | 45.63369 | 5.88242 | 14520 ft | 325 kts | 297° |
| 2026-05-05 20:47 | 45.64527 | 5.85511 | 14103 ft | 324 kts | 297° |
| 2026-05-05 20:47 | 45.65693 | 5.82757 | 13682 ft | 322 kts | 297° |
| 2026-05-05 20:48 | 45.66843 | 5.80034 | 13265 ft | 321 kts | 297° |
| 2026-05-05 20:48 | 45.67989 | 5.77322 | 12856 ft | 320 kts | 297° |
| 2026-05-05 20:48 | 45.69132 | 5.74612 | 12436 ft | 319 kts | 297° |
| 2026-05-05 20:48 | 45.70276 | 5.71900 | 12013 ft | 318 kts | 297° |
| 2026-05-05 20:49 | 45.71403 | 5.69229 | 11604 ft | 310 kts | 298° |
| 2026-05-05 20:49 | 45.72481 | 5.66678 | 11233 ft | 300 kts | 298° |
| 2026-05-05 20:49 | 45.73562 | 5.64117 | 10827 ft | 300 kts | 298° |
| 2026-05-05 20:49 | 45.74635 | 5.61562 | 10438 ft | 300 kts | 298° |
| 2026-05-05 20:50 | 45.75694 | 5.59035 | 10043 ft | 299 kts | 298° |
| 2026-05-05 20:50 | 45.76406 | 5.57337 | 9812 ft | 297 kts | 298° |
| 2026-05-05 20:50 | 45.77817 | 5.53974 | 9368 ft | 294 kts | 298° |
| 2026-05-05 20:50 | 45.78848 | 5.51517 | 8982 ft | 285 kts | 298° |
| 2026-05-05 20:51 | 45.79858 | 5.49109 | 8648 ft | 281 kts | 298° |
| 2026-05-05 20:51 | 45.80862 | 5.46708 | 8267 ft | 281 kts | 298° |
| 2026-05-05 20:51 | 45.81864 | 5.44304 | 7916 ft | 281 kts | 298° |
| 2026-05-05 20:51 | 45.82856 | 5.41921 | 7516 ft | 278 kts | 299° |
| 2026-05-05 20:52 | 45.83830 | 5.39587 | 7197 ft | 268 kts | 299° |
| 2026-05-05 20:52 | 45.84759 | 5.37356 | 6834 ft | 260 kts | 299° |
| 2026-05-05 20:52 | 45.85682 | 5.35128 | 6459 ft | 254 kts | 299° |
| 2026-05-05 20:52 | 45.86574 | 5.32969 | 6169 ft | 252 kts | 298° |
| 2026-05-05 20:53 | 45.87463 | 5.30815 | 5796 ft | 253 kts | 298° |
| 2026-05-05 20:53 | 45.88353 | 5.28658 | 5474 ft | 253 kts | 299° |
| 2026-05-05 20:53 | 45.89257 | 5.26475 | 5152 ft | 252 kts | 299° |
| 2026-05-05 20:53 | 45.90142 | 5.24339 | 4995 ft | 250 kts | 299° |
| 2026-05-05 20:54 | 45.91037 | 5.22176 | 4933 ft | 254 kts | 300° |
| 2026-05-05 20:54 | 45.91942 | 5.19989 | 4844 ft | 251 kts | 300° |
| 2026-05-05 20:54 | 45.92807 | 5.17886 | 4747 ft | 242 kts | 297° |
| 2026-05-05 20:54 | 45.93452 | 5.15693 | 4609 ft | 238 kts | 279° |
| 2026-05-05 20:55 | 45.93475 | 5.13360 | 4344 ft | 234 kts | 260° |
| 2026-05-05 20:55 | 45.93181 | 5.11081 | 4139 ft | 226 kts | 253° |
| 2026-05-05 20:55 | 45.92604 | 5.09076 | 4016 ft | 215 kts | 236° |
| 2026-05-05 20:55 | 45.91587 | 5.07618 | 3884 ft | 203 kts | 205° |
| 2026-05-05 20:56 | 45.90238 | 5.07200 | 3728 ft | 198 kts | 178° |
| 2026-05-05 20:56 | 45.88881 | 5.07343 | 3548 ft | 193 kts | 175° |
| 2026-05-05 20:56 | 45.87547 | 5.07487 | 3318 ft | 188 kts | 175° |
| 2026-05-05 20:56 | 45.86277 | 5.07631 | 3141 ft | 182 kts | 175° |
| 2026-05-05 20:57 | 45.85041 | 5.07783 | 2976 ft | 175 kts | 175° |
| 2026-05-05 20:57 | 45.83829 | 5.07931 | 2878 ft | 173 kts | 175° |
| 2026-05-05 20:57 | 45.82626 | 5.08076 | 2608 ft | 173 kts | 175° |
| 2026-05-05 20:57 | 45.81470 | 5.08221 | 2382 ft | 160 kts | 175° |
| 2026-05-05 20:58 | 45.80432 | 5.08345 | 2178 ft | 144 kts | 175° |
| 2026-05-05 20:58 | 45.79451 | 5.08460 | 1976 ft | 139 kts | 175° |
| 2026-05-05 20:58 | 45.78473 | 5.08573 | 1804 ft | 140 kts | 175° |
| 2026-05-05 20:58 | 45.77515 | 5.08703 | 1595 ft | 140 kts | 177° |
| 2026-05-05 20:59 | 45.76529 | 5.08815 | 1418 ft | 140 kts | 174° |
| 2026-05-05 20:59 | 45.75550 | 5.08940 | 1232 ft | 139 kts | 174° |
| 2026-05-05 20:59 | 45.74571 | 5.09054 | 1037 ft | 142 kts | 176° |
| 2026-05-05 20:59 | 45.73582 | 5.09178 | 869 ft | 141 kts | 176° |
| 2026-05-05 21:00 | 45.72687 | 5.09286 | 799 ft | 103 kts | 176° |
| 2026-05-05 21:00 | 45.72192 | 5.09345 | 809 ft | 49 kts | 175° |
| 2026-05-05 21:00 | 45.71867 | 5.09369 | 815 ft | 43 kts | 188° |
| 2026-05-05 21:00 | 45.71666 | 5.09267 | 816 ft | 15 kts | 214° |
| 2026-05-05 21:01 | 45.71633 | 5.09156 | 815 ft | 12 kts | 265° |
| 2026-05-05 21:01 | 45.71626 | 5.09026 | 813 ft | 14 kts | 265° |
| 2026-05-05 21:01 | 45.71618 | 5.08890 | 811 ft | 10 kts | 265° |
| 2026-05-05 21:01 | 45.71611 | 5.08779 | 809 ft | 12 kts | 265° |
| 2026-05-05 21:02 | 45.71604 | 5.08660 | 806 ft | 12 kts | 265° |
| 2026-05-05 21:02 | 45.71595 | 5.08549 | 804 ft | 10 kts | 248° |
| 2026-05-05 21:02 | 45.71537 | 5.08510 | 804 ft | 9 kts | 176° |
| 2026-05-05 21:02 | 45.71479 | 5.08517 | 805 ft | 7 kts | 175° |
| 2026-05-05 21:03 | 45.71433 | 5.08511 | 805 ft | 5 kts | 197° |
| 2026-05-05 21:03 | 45.71416 | 5.08466 | 805 ft | 6 kts | 262° |
| 2026-05-05 21:03 | 45.71409 | 5.08358 | 803 ft | 15 kts | 265° |
| 2026-05-05 21:03 | 45.71421 | 5.08228 | 801 ft | 9 kts | 285° |
| 2026-05-05 21:04 | 45.71471 | 5.08216 | 800 ft | 7 kts | 16° |
| 2026-05-05 21:04 | 45.71503 | 5.08229 | 800 ft | 0 kts | 16° |